LRCL/CLJ METAR and TAF weather

Enter ICAO airport designator
Station Type Date Time Source
LRCL METAR 2020/01/27 16:30 UTC NOAA

LRCL 271630Z 00000KT 2500 -RA BR FEW020 OVC045 03/02 Q1015 R07/29//95


Station Type Date Time Source
LRCL Decoded METAR 2020/01/27 16:30 UTC NOAA

Cluj-Napoca, Romania (LRCL) 46-47N 023-34E 413M
Jan 27, 2020 - 11:30 AM EST / 2020.01.27 1630 UTC
Wind: Calm:0
Visibility: 1 mile(s):0
Sky conditions: overcast
Weather: light rain; mist
Temperature: 37 F (3 C)
Dew Point: 35 F (2 C)
Relative Humidity: 93%
Pressure (altimeter): 29.97 in. Hg (1015 hPa)
ob: LRCL 271630Z 00000KT 2500 -RA BR FEW020 OVC045 03/02 Q1015 R07/29//95
cycle: 16

Station Type Date Time Source
LRCL TAF 2007/05/23 16:57 UTC NOAA

TAF
AMD LRCL 231657Z 231607 VRB02MPS 9999 SCT030 BKN080
TEMPO 1719 VRB15G20MPS 1500 TSRAGR SCT010 BKN020CB OVC080

Example: see airport list